Time;durP1;ratioP1;P1;durP2;ratioP2;P2;SDS_P1;SDS_P2;PMS_P1;PMS_P2;Temp;Humidity;BMP_temperature;BMP_pressure;BME280_temperature;BME280_humidity;BME280_pressure;Samples;Min_cycle;Max_cycle;Signal;HPM_P1;HPM_P2
2022/12/07 03:00:24;;;;;;;16.70;15.40;;;4.30;99.90;;;;;;5960539;23;20192;31
2022/12/07 03:02:56;;;;;;;16.00;14.80;;;4.20;99.90;;;;;;4872477;29;20304;-77
2022/12/07 03:05:47;;;;;;;15.77;14.67;;;4.30;99.90;;;;;;4873049;29;20202;-77
2022/12/07 03:08:22;;;;;;;16.10;14.90;;;4.20;99.90;;;;;;4871674;29;20705;-77
2022/12/07 03:10:55;;;;;;;16.30;15.10;;;4.30;99.90;;;;;;4874289;29;20217;-77
2022/12/07 03:13:26;;;;;;;16.67;15.47;;;4.20;99.90;;;;;;4881228;29;20236;-77
2022/12/07 03:16:00;;;;;;;16.80;15.50;;;4.20;99.90;;;;;;4884801;29;20217;-77
2022/12/07 03:18:31;;;;;;;16.57;15.37;;;4.20;99.90;;;;;;4883366;29;20208;-77
2022/12/07 03:21:02;;;;;;;15.10;14.07;;;4.20;99.90;;;;;;4882620;29;20233;-77
2022/12/07 03:23:32;;;;;;;16.00;14.90;;;4.20;99.90;;;;;;4890684;29;20209;-77
2022/12/07 03:26:01;;;;;;;16.53;15.13;;;4.20;99.90;;;;;;4886596;29;20228;-77
2022/12/07 03:28:34;;;;;;;17.67;16.27;;;4.20;99.90;;;;;;4880567;29;20197;-77
2022/12/07 03:31:06;;;;;;;17.63;16.23;;;4.20;99.90;;;;;;4886692;29;20232;-77
2022/12/07 03:33:39;;;;;;;18.13;16.73;;;4.20;99.90;;;;;;4884256;29;20208;-77
2022/12/07 03:36:09;;;;;;;18.00;16.43;;;4.10;99.90;;;;;;4881927;29;20211;-77
2022/12/07 03:38:41;;;;;;;17.53;16.13;;;4.10;99.90;;;;;;4886225;29;20204;-77
2022/12/07 03:41:12;;;;;;;18.47;16.97;;;4.00;99.90;;;;;;4881736;29;20276;-77
2022/12/07 03:43:41;;;;;;;18.70;17.10;;;4.00;99.90;;;;;;4888285;29;20208;-78
2022/12/07 03:46:19;;;;;;;19.07;17.47;;;4.00;99.90;;;;;;4886456;29;20729;-77
2022/12/07 03:48:57;;;;;;;19.40;17.70;;;3.90;99.90;;;;;;4886374;29;20201;-77
2022/12/07 03:51:31;;;;;;;19.90;18.30;;;3.90;99.90;;;;;;4887457;29;20213;-77
2022/12/07 03:54:03;;;;;;;19.50;17.90;;;3.90;99.90;;;;;;4892411;29;20197;-78
2022/12/07 03:56:31;;;;;;;19.30;17.70;;;3.90;99.90;;;;;;4880840;29;20673;-78
2022/12/07 03:58:58;;;;;;;20.30;18.50;;;3.80;99.90;;;;;;4878329;29;20194;-79
2022/12/07 04:01:26;;;;;;;19.70;18.00;;;3.80;99.90;;;;;;4877913;29;20228;-79
2022/12/07 04:03:53;;;;;;;19.77;18.17;;;3.80;99.90;;;;;;4883756;29;20197;-78
2022/12/07 04:06:20;;;;;;;20.40;18.70;;;3.70;99.90;;;;;;4889566;29;20210;-78
2022/12/07 04:08:47;;;;;;;20.87;19.00;;;3.80;99.90;;;;;;4885282;29;20216;-79
2022/12/07 04:11:14;;;;;;;21.50;19.63;;;3.70;99.90;;;;;;4883787;29;20229;-79
2022/12/07 04:16:26;;;;;;;22.20;20.30;;;3.70;99.90;;;;;;4889393;29;20205;-78
2022/12/07 04:18:53;;;;;;;20.57;18.73;;;3.70;99.90;;;;;;4889053;29;20209;-79
2022/12/07 04:21:20;;;;;;;20.37;18.67;;;3.70;99.90;;;;;;4890890;29;20251;-79
2022/12/07 04:23:46;;;;;;;22.13;20.10;;;3.70;99.90;;;;;;4882668;29;20205;-78
2022/12/07 04:26:13;;;;;;;20.87;19.17;;;3.70;99.90;;;;;;4887867;29;20215;-78
2022/12/07 04:28:40;;;;;;;22.23;20.23;;;3.60;99.90;;;;;;4885611;29;20211;-79
2022/12/07 04:31:07;;;;;;;19.80;18.30;;;3.60;99.90;;;;;;4884331;29;20598;-78
2022/12/07 04:33:36;;;;;;;19.50;17.97;;;3.60;99.90;;;;;;4890751;29;20205;-77
2022/12/07 04:36:03;;;;;;;19.43;17.93;;;3.60;99.90;;;;;;4882917;29;20217;-77
2022/12/07 04:38:30;;;;;;;20.77;19.00;;;3.60;99.90;;;;;;4886984;29;20193;-77
2022/12/07 04:40:57;;;;;;;19.97;18.17;;;3.50;99.90;;;;;;4889442;29;20228;-79
2022/12/07 04:43:24;;;;;;;20.47;18.73;;;3.60;99.90;;;;;;4881227;29;20205;-78
2022/12/07 04:45:51;;;;;;;20.13;18.53;;;3.50;99.90;;;;;;4886400;29;20216;-76
2022/12/07 04:48:18;;;;;;;19.57;17.97;;;3.50;99.90;;;;;;4879153;29;20576;-77
2022/12/07 04:50:49;;;;;;;19.93;18.33;;;3.50;99.90;;;;;;4885809;29;20219;-77
2022/12/07 04:53:16;;;;;;;19.27;17.67;;;3.50;99.90;;;;;;4890255;29;20232;-77
2022/12/07 04:55:44;;;;;;;19.57;18.00;;;3.50;99.90;;;;;;4879953;29;20619;-77
2022/12/07 04:58:11;;;;;;;21.87;19.97;;;3.50;99.90;;;;;;4886464;29;20206;-77
2022/12/07 05:00:38;;;;;;;20.50;18.77;;;3.50;99.90;;;;;;4885863;29;20233;-77
2022/12/07 05:03:05;;;;;;;21.33;19.60;;;3.40;99.90;;;;;;4886466;29;20662;-77
2022/12/07 05:05:32;;;;;;;19.53;17.90;;;3.40;99.90;;;;;;4881119;29;20200;-77
2022/12/07 05:08:00;;;;;;;20.63;18.93;;;3.40;99.90;;;;;;4886150;29;20204;-77
2022/12/07 05:10:27;;;;;;;20.30;18.60;;;3.40;99.90;;;;;;4880103;29;20688;-77
2022/12/07 05:12:53;;;;;;;20.37;18.67;;;3.30;99.90;;;;;;4882944;29;20212;-77
2022/12/07 05:15:20;;;;;;;21.00;19.30;;;3.30;99.90;;;;;;4884888;29;20213;-76
2022/12/07 05:17:47;;;;;;;20.40;18.70;;;3.20;99.90;;;;;;4884483;29;20256;-77
2022/12/07 05:20:14;;;;;;;20.47;18.77;;;3.20;99.90;;;;;;4879907;29;20225;-76
2022/12/07 05:22:41;;;;;;;20.40;18.63;;;3.10;99.90;;;;;;4882770;29;20399;-77
2022/12/07 05:25:09;;;;;;;19.50;17.90;;;3.00;99.90;;;;;;4885516;29;20578;-76
2022/12/07 05:27:36;;;;;;;19.80;18.13;;;3.00;99.90;;;;;;4884607;29;20686;-76
2022/12/07 05:30:04;;;;;;;21.33;19.53;;;2.90;99.90;;;;;;4884518;29;20198;-76
2022/12/07 05:32:31;;;;;;;20.30;18.60;;;3.00;99.90;;;;;;4888293;29;20212;-76
2022/12/07 05:34:57;;;;;;;20.87;19.17;;;2.90;99.90;;;;;;4885331;29;20465;-76
2022/12/07 05:37:24;;;;;;;19.97;18.30;;;3.00;99.90;;;;;;4884507;29;20238;-77
2022/12/07 05:39:51;;;;;;;20.27;18.63;;;3.00;99.90;;;;;;4880656;29;20757;-77
2022/12/07 05:42:19;;;;;;;19.60;18.03;;;2.90;99.90;;;;;;4884433;29;20586;-76
2022/12/07 05:44:47;;;;;;;22.23;20.17;;;2.90;99.90;;;;;;4887601;29;20212;-77
2022/12/07 05:47:15;;;;;;;20.30;18.77;;;2.80;99.90;;;;;;4883674;29;20209;-76
2022/12/07 05:49:42;;;;;;;21.13;19.40;;;2.80;99.90;;;;;;4884177;29;20197;-77
2022/12/07 05:52:09;;;;;;;20.77;19.13;;;2.80;99.90;;;;;;4885693;29;20272;-77
2022/12/07 05:54:36;;;;;;;20.23;18.63;;;2.70;99.90;;;;;;4881050;29;20200;-76
2022/12/07 05:57:03;;;;;;;20.77;19.03;;;2.60;99.90;;;;;;4887689;29;20207;-77
2022/12/07 05:59:30;;;;;;;21.97;20.07;;;2.60;99.90;;;;;;4878692;29;20486;-77
2022/12/07 06:01:59;;;;;;;20.37;18.67;;;2.50;99.90;;;;;;4882354;29;20758;-77
2022/12/07 06:04:27;;;;;;;21.33;19.43;;;2.50;99.90;;;;;;4887933;29;20450;-76
2022/12/07 06:06:55;;;;;;;20.90;19.30;;;2.50;99.90;;;;;;4888190;29;20201;-76
2022/12/07 06:09:23;;;;;;;20.70;19.10;;;2.40;99.90;;;;;;4887869;29;20456;-76
2022/12/07 06:14:36;;;;;;;20.77;19.00;;;2.30;99.90;;;;;;4882673;29;20684;-76
2022/12/07 06:17:03;;;;;;;21.00;19.10;;;2.20;99.90;;;;;;4885309;29;20446;-77
2022/12/07 06:19:30;;;;;;;21.17;19.37;;;2.20;99.90;;;;;;4900176;29;20212;-76
2022/12/07 06:21:57;;;;;;;20.87;19.07;;;2.20;99.90;;;;;;4900137;29;20276;-76
2022/12/07 06:24:24;;;;;;;20.37;18.57;;;2.20;99.90;;;;;;4899920;29;20231;-76
2022/12/07 06:26:51;;;;;;;21.63;19.83;;;2.20;99.90;;;;;;4900375;29;20214;-77
2022/12/07 06:29:19;;;;;;;20.03;18.43;;;2.10;99.90;;;;;;4900029;29;20249;-76
2022/12/07 06:31:47;;;;;;;20.67;18.83;;;2.10;99.90;;;;;;4883157;29;20491;-76
2022/12/07 06:34:18;;;;;;;20.13;18.40;;;2.10;99.90;;;;;;4888697;29;20451;-77
2022/12/07 06:36:45;;;;;;;19.37;17.80;;;2.00;99.90;;;;;;4889359;29;20453;-76
2022/12/07 06:39:12;;;;;;;20.83;19.10;;;2.10;99.90;;;;;;4884194;29;20209;-77
2022/12/07 06:41:39;;;;;;;19.30;17.70;;;2.00;99.90;;;;;;4885582;29;20492;-76
2022/12/07 06:44:07;;;;;;;21.87;19.80;;;1.90;99.90;;;;;;4885521;29;20438;-76
2022/12/07 06:46:35;;;;;;;20.73;19.03;;;1.90;99.90;;;;;;4886345;29;20460;-76
2022/12/07 06:49:04;;;;;;;20.93;19.17;;;1.90;99.90;;;;;;4887353;29;20453;-76
2022/12/07 06:51:31;;;;;;;21.27;19.43;;;1.90;99.90;;;;;;4872424;29;20488;-76
2022/12/07 06:53:58;;;;;;;20.57;18.87;;;1.80;99.90;;;;;;4884551;29;20460;-77
2022/12/07 06:56:25;;;;;;;21.07;19.20;;;1.90;99.90;;;;;;4894763;29;20197;-77
2022/12/07 06:58:52;;;;;;;20.37;18.73;;;1.80;99.90;;;;;;4887436;29;20433;-77
2022/12/07 07:01:19;;;;;;;19.70;18.07;;;1.80;99.90;;;;;;4883372;29;20485;-76
2022/12/07 07:03:46;;;;;;;20.47;18.73;;;1.80;99.90;;;;;;4891616;29;20483;-76
2022/12/07 07:06:15;;;;;;;21.30;19.43;;;1.80;99.90;;;;;;4888960;29;20468;-78
2022/12/07 07:08:42;;;;;;;20.30;18.53;;;1.90;99.90;;;;;;4887665;29;20463;-77
2022/12/07 07:11:10;;;;;;;20.90;19.10;;;1.90;99.90;;;;;;4883534;29;20474;-77
2022/12/07 07:13:37;;;;;;;20.80;19.00;;;1.90;99.90;;;;;;4887058;29;20454;-77
2022/12/07 07:16:04;;;;;;;21.60;19.70;;;2.00;99.90;;;;;;4887235;29;20471;-77
2022/12/07 07:18:31;;;;;;;21.20;19.33;;;2.00;99.90;;;;;;4884492;29;20195;-77
2022/12/07 07:20:58;;;;;;;20.47;18.77;;;2.10;99.90;;;;;;4882797;29;20477;-77
2022/12/07 07:23:26;;;;;;;21.03;19.20;;;2.20;99.90;;;;;;4891233;29;20447;-77
2022/12/07 07:25:53;;;;;;;20.90;19.00;;;2.20;99.90;;;;;;4883950;29;20958;-77
2022/12/07 07:28:20;;;;;;;20.40;18.50;;;2.20;99.90;;;;;;4889483;29;20442;-77
2022/12/07 07:30:47;;;;;;;20.23;18.57;;;2.20;99.90;;;;;;4886858;29;20481;-77
2022/12/07 07:33:14;;;;;;;21.30;19.47;;;2.20;99.90;;;;;;4882238;29;20822;-77
2022/12/07 07:35:41;;;;;;;22.57;20.47;;;2.20;99.90;;;;;;4887654;29;20441;-77
2022/12/07 07:38:09;;;;;;;21.20;19.30;;;2.30;99.90;;;;;;4889112;29;20461;-77
2022/12/07 07:40:37;;;;;;;22.40;20.40;;;2.30;99.90;;;;;;4882014;29;20488;-78
2022/12/07 07:43:04;;;;;;;22.17;20.07;;;2.40;99.90;;;;;;4886720;29;20493;-78
2022/12/07 07:45:31;;;;;;;21.73;19.80;;;2.40;99.90;;;;;;4886711;29;20534;-78
2022/12/07 07:47:58;;;;;;;21.10;19.17;;;2.50;99.90;;;;;;4887375;29;20437;-78
2022/12/07 07:50:24;;;;;;;21.37;19.57;;;2.50;99.90;;;;;;4881669;29;20531;-78
2022/12/07 07:52:52;;;;;;;21.37;19.47;;;2.60;99.90;;;;;;4881103;29;20444;-77
2022/12/07 07:55:19;;;;;;;21.70;19.87;;;2.70;99.90;;;;;;4901446;29;20205;-78
2022/12/07 07:57:48;;;;;;;21.13;19.23;;;2.70;99.90;;;;;;4886866;29;20216;-78
2022/12/07 08:00:16;;;;;;;20.47;18.67;;;2.80;99.90;;;;;;4881186;29;20210;-78
2022/12/07 08:02:43;;;;;;;20.17;18.50;;;2.80;99.90;;;;;;4887456;29;20253;-77
2022/12/07 08:05:11;;;;;;;19.80;18.07;;;2.90;99.90;;;;;;4887308;29;20206;-77
2022/12/07 08:07:38;;;;;;;18.27;16.87;;;3.00;99.90;;;;;;4899661;29;20290;-77
2022/12/07 08:10:07;;;;;;;19.30;17.80;;;3.00;99.90;;;;;;4887236;29;20445;-77
2022/12/07 08:13:10;;;;;;;19.20;17.57;;;3.10;99.90;;;;;;4883577;29;20690;-78
2022/12/07 08:15:27;;;;;;;19.63;17.93;;;3.20;99.90;;;;;;4882747;29;20287;-77
2022/12/07 08:17:53;;;;;;;20.00;18.23;;;3.30;99.90;;;;;;4882808;29;20239;-78
2022/12/07 08:20:21;;;;;;;18.87;17.37;;;3.30;99.90;;;;;;4889624;29;20284;-78
2022/12/07 08:22:47;;;;;;;18.60;17.10;;;3.30;99.90;;;;;;4887792;29;20204;-78
2022/12/07 08:25:14;;;;;;;19.90;18.20;;;3.50;99.90;;;;;;4884552;29;20675;-78
2022/12/07 08:27:41;;;;;;;18.70;17.17;;;3.50;99.90;;;;;;4888279;29;20208;-78
2022/12/07 08:30:09;;;;;;;20.00;18.20;;;3.50;99.90;;;;;;4886456;29;20205;-78
2022/12/07 08:32:37;;;;;;;19.83;18.13;;;3.60;99.90;;;;;;4884720;29;20224;-78
2022/12/07 08:35:05;;;;;;;19.37;17.53;;;3.60;99.90;;;;;;4888825;29;20212;-78
2022/12/07 08:37:32;;;;;;;18.90;17.47;;;3.70;99.90;;;;;;4878464;29;20205;-77
2022/12/07 08:39:59;;;;;;;19.60;17.90;;;3.70;99.90;;;;;;4889718;29;20216;-78
2022/12/07 08:42:29;;;;;;;18.70;17.20;;;3.70;99.90;;;;;;4879126;29;20300;-78
2022/12/07 08:44:56;;;;;;;19.57;18.07;;;3.70;99.90;;;;;;4877978;29;20201;-78
2022/12/07 08:47:24;;;;;;;18.50;16.87;;;3.80;99.90;;;;;;4883138;29;20200;-79
2022/12/07 08:49:54;;;;;;;19.40;17.80;;;3.80;99.90;;;;;;4885626;29;20220;-78
2022/12/07 08:52:21;;;;;;;18.97;17.37;;;3.90;99.90;;;;;;4885704;29;20224;-79
2022/12/07 08:54:48;;;;;;;20.07;18.47;;;3.90;99.90;;;;;;4886275;29;20580;-78
2022/12/07 08:57:15;;;;;;;18.83;17.33;;;4.00;99.90;;;;;;4887102;29;20544;-78
2022/12/07 08:59:42;;;;;;;18.87;17.37;;;4.10;99.90;;;;;;4884114;29;20279;-78
2022/12/07 09:02:09;;;;;;;18.23;16.83;;;4.10;99.90;;;;;;4881785;29;20640;-78
2022/12/07 09:04:36;;;;;;;18.67;17.17;;;4.10;99.90;;;;;;4887098;29;20197;-78
2022/12/07 09:07:05;;;;;;;18.73;17.40;;;4.20;99.90;;;;;;4885823;29;20192;-79
2022/12/07 09:09:32;;;;;;;18.27;16.77;;;4.30;99.90;;;;;;4879862;29;20204;-79
2022/12/07 09:11:59;;;;;;;18.13;16.73;;;4.40;99.90;;;;;;4886419;29;20209;-78
2022/12/07 09:14:26;;;;;;;18.83;17.33;;;4.40;99.90;;;;;;4882349;29;20203;-78
2022/12/07 09:16:53;;;;;;;18.03;16.53;;;4.40;99.90;;;;;;4883566;29;20201;-78
2022/12/07 09:19:20;;;;;;;17.97;16.67;;;4.40;99.90;;;;;;4886721;29;20320;-78
2022/12/07 09:21:47;;;;;;;18.33;16.93;;;4.50;99.90;;;;;;4895461;29;20221;-78
2022/12/07 09:24:15;;;;;;;18.10;16.70;;;4.50;99.90;;;;;;4885358;29;20204;-78
2022/12/07 09:26:42;;;;;;;18.77;17.20;;;4.60;99.90;;;;;;4886615;29;20193;-78
2022/12/07 09:29:09;;;;;;;17.00;15.57;;;4.60;99.90;;;;;;4881158;29;20213;-78
2022/12/07 09:31:38;;;;;;;17.70;16.20;;;4.70;99.90;;;;;;4884275;29;20225;-78
2022/12/07 09:34:06;;;;;;;19.10;17.40;;;4.70;99.90;;;;;;4886509;29;20602;-78
2022/12/07 09:36:32;;;;;;;18.57;16.87;;;4.90;99.90;;;;;;4898609;29;20195;-78
2022/12/07 09:38:59;;;;;;;17.20;15.80;;;5.00;99.90;;;;;;4886075;29;20200;-78
2022/12/07 09:41:31;;;;;;;17.13;15.73;;;5.00;99.90;;;;;;4878231;29;20319;-78
2022/12/07 09:44:05;;;;;;;17.97;16.57;;;5.10;99.90;;;;;;4884998;29;20208;-78
2022/12/07 09:46:37;;;;;;;18.63;17.13;;;5.10;99.90;;;;;;4878414;29;20205;-78
2022/12/07 09:49:04;;;;;;;18.00;16.50;;;5.20;99.90;;;;;;4880568;29;20299;-78
2022/12/07 09:51:32;;;;;;;16.63;15.23;;;5.20;99.90;;;;;;4889593;29;20701;-78
2022/12/07 09:54:00;;;;;;;17.93;16.43;;;5.30;99.90;;;;;;4883515;29;20205;-79
2022/12/07 09:56:31;;;;;;;16.63;15.23;;;5.40;99.90;;;;;;4878692;29;20218;-78
2022/12/07 09:59:01;;;;;;;17.37;15.87;;;5.50;99.90;;;;;;4881605;29;20234;-78
2022/12/07 10:01:30;;;;;;;17.00;15.70;;;5.60;99.90;;;;;;4879962;29;20218;-78
2022/12/07 10:04:06;;;;;;;17.10;15.60;;;5.60;99.90;;;;;;4884939;29;20289;-78
2022/12/07 10:06:33;;;;;;;16.50;15.10;;;5.70;99.90;;;;;;4880882;29;20216;-78
2022/12/07 10:09:00;;;;;;;16.47;14.97;;;5.80;99.90;;;;;;4881900;29;20204;-78
2022/12/07 10:11:28;;;;;;;16.77;15.47;;;5.80;99.90;;;;;;4878224;29;20222;-78
2022/12/07 10:13:55;;;;;;;16.97;15.67;;;5.80;99.90;;;;;;4882278;29;20199;-78
2022/12/07 10:16:35;;;;;;;17.53;15.93;;;5.90;99.90;;;;;;4885688;29;20282;-78
2022/12/07 10:19:20;;;;;;;16.57;15.37;;;6.00;99.90;;;;;;4884708;29;20203;-78
2022/12/07 10:22:05;;;;;;;15.60;14.43;;;6.00;99.90;;;;;;4884266;29;20225;-79
2022/12/07 10:24:32;;;;;;;15.77;14.47;;;6.00;99.90;;;;;;4871716;29;20237;-78
2022/12/07 10:27:00;;;;;;;15.13;13.93;;;6.10;99.90;;;;;;4881870;29;20204;-78
2022/12/07 10:29:31;;;;;;;14.93;13.83;;;6.10;99.90;;;;;;4873889;29;20568;-78
2022/12/07 10:32:00;;;;;;;15.27;14.13;;;6.20;99.90;;;;;;4884282;29;20228;-79
2022/12/07 10:34:29;;;;;;;14.23;13.13;;;6.20;99.90;;;;;;4890880;29;20204;-79
2022/12/07 10:37:14;;;;;;;15.03;13.73;;;6.20;99.90;;;;;;4885252;29;20227;-78
2022/12/07 10:39:43;;;;;;;14.20;13.20;;;6.20;99.90;;;;;;4873223;29;20207;-78
2022/12/07 10:42:18;;;;;;;14.70;13.60;;;6.20;99.90;;;;;;4885289;29;20317;-78
2022/12/07 10:44:45;;;;;;;14.20;13.20;;;6.10;99.90;;;;;;4878486;29;20230;-79
2022/12/07 10:47:30;;;;;;;14.10;13.00;;;6.10;99.90;;;;;;4896218;29;20216;-77
2022/12/07 10:50:11;;;;;;;14.17;13.17;;;6.10;99.90;;;;;;4886497;29;20203;-78
2022/12/07 10:53:08;;;;;;;14.53;13.53;;;6.20;99.90;;;;;;4881571;29;20224;-79
2022/12/07 10:55:51;;;;;;;15.37;14.27;;;6.30;99.90;;;;;;4894191;29;20213;-78
2022/12/07 10:58:32;;;;;;;14.63;13.53;;;6.40;99.90;;;;;;4884193;29;20225;-78
2022/12/07 11:01:11;;;;;;;14.40;13.23;;;6.40;99.90;;;;;;4876113;29;20239;-78
2022/12/07 11:03:57;;;;;;;14.30;13.30;;;6.40;99.90;;;;;;4875378;29;20250;-78
2022/12/07 11:06:34;;;;;;;14.30;13.20;;;6.50;99.90;;;;;;4888565;29;20242;-78
2022/12/07 11:09:17;;;;;;;14.60;13.50;;;6.40;99.90;;;;;;4881428;29;20203;-78
2022/12/07 11:11:53;;;;;;;14.03;12.93;;;6.40;99.90;;;;;;4881156;29;20476;-78
2022/12/07 11:14:29;;;;;;;14.20;13.00;;;6.50;99.90;;;;;;4882837;29;20239;-79
2022/12/07 11:16:59;;;;;;;14.27;13.27;;;6.40;99.90;;;;;;4889787;29;20549;-79
2022/12/07 11:19:51;;;;;;;13.50;12.40;;;6.40;99.90;;;;;;4896119;29;20205;-78
2022/12/07 11:22:25;;;;;;;14.83;13.63;;;6.50;99.90;;;;;;4894475;29;20239;-78
2022/12/07 11:24:58;;;;;;;14.87;13.60;;;6.50;99.90;;;;;;4902716;29;20575;-77
2022/12/07 11:27:35;;;;;;;14.30;13.20;;;6.50;99.90;;;;;;4892232;29;20679;-78
2022/12/07 11:30:15;;;;;;;14.53;13.43;;;6.50;99.90;;;;;;4892792;29;20565;-77
2022/12/07 11:33:08;;;;;;;14.07;13.07;;;6.50;99.90;;;;;;4882963;29;20230;-78
2022/12/07 11:35:46;;;;;;;13.47;12.57;;;6.50;99.90;;;;;;4881049;29;20208;-78
2022/12/07 11:38:16;;;;;;;14.53;13.47;;;6.60;99.90;;;;;;4887435;29;20576;-78
2022/12/07 11:40:48;;;;;;;15.30;14.23;;;6.60;99.90;;;;;;4885437;29;20756;-78
2022/12/07 11:43:22;;;;;;;14.63;13.60;;;6.50;99.90;;;;;;4872939;29;20232;-78
2022/12/07 11:45:57;;;;;;;14.30;13.30;;;6.50;99.90;;;;;;4882567;29;20195;-77
2022/12/07 11:48:32;;;;;;;14.43;13.40;;;6.50;99.90;;;;;;4883574;29;20200;-78
2022/12/07 11:51:02;;;;;;;14.83;13.73;;;6.60;99.90;;;;;;4883321;29;20284;-78
2022/12/07 11:53:34;;;;;;;14.30;13.30;;;6.50;99.90;;;;;;4875506;29;20207;-78
2022/12/07 11:56:06;;;;;;;15.50;14.40;;;6.50;99.90;;;;;;4886795;29;20208;-78
2022/12/07 11:58:43;;;;;;;15.07;13.97;;;6.60;99.90;;;;;;4881306;29;20204;-78
2022/12/07 12:01:23;;;;;;;14.80;13.70;;;6.60;99.90;;;;;;4868376;29;20638;-78
2022/12/07 12:03:53;;;;;;;15.87;14.67;;;6.50;99.90;;;;;;4883956;29;20211;-79
2022/12/07 12:06:21;;;;;;;15.03;13.97;;;6.50;99.90;;;;;;4885302;29;20216;-78
2022/12/07 12:08:54;;;;;;;14.03;13.03;;;6.50;99.90;;;;;;4887788;29;20188;-78
2022/12/07 12:11:46;;;;;;;14.53;13.53;;;6.60;99.90;;;;;;4887448;29;20679;-78
2022/12/07 12:14:37;;;;;;;14.57;13.47;;;6.60;99.90;;;;;;4886052;29;20220;-78
2022/12/07 12:17:45;;;;;;;15.00;13.90;;;6.70;99.90;;;;;;4885209;29;20200;-78
2022/12/07 12:20:22;;;;;;;15.20;14.10;;;6.70;99.90;;;;;;4886233;29;20205;-78
2022/12/07 12:22:53;;;;;;;15.80;14.67;;;6.60;99.90;;;;;;4887046;29;20234;-78
2022/12/07 12:25:23;;;;;;;15.33;14.33;;;6.60;99.90;;;;;;4881356;29;20208;-79
2022/12/07 12:27:52;;;;;;;15.03;14.03;;;6.60;99.90;;;;;;4883081;29;20212;-78
2022/12/07 12:30:34;;;;;;;15.63;14.63;;;6.60;99.90;;;;;;4884381;29;20202;-78
2022/12/07 12:33:14;;;;;;;15.40;14.40;;;6.70;99.90;;;;;;4881053;29;20220;-79
2022/12/07 12:35:41;;;;;;;14.60;13.60;;;6.60;99.90;;;;;;4876394;29;20234;-79
2022/12/07 12:38:34;;;;;;;14.37;13.43;;;6.60;99.90;;;;;;4896415;29;20218;-79
2022/12/07 12:41:02;;;;;;;15.20;13.90;;;6.70;99.90;;;;;;4874021;29;20233;-77
2022/12/07 12:43:42;;;;;;;14.00;13.10;;;6.70;99.90;;;;;;4870012;29;20590;-79
2022/12/07 12:46:55;;;;;;;15.03;13.90;;;6.70;99.90;;;;;;4889073;29;20210;-79
2022/12/07 12:50:04;;;;;;;15.00;13.90;;;6.70;99.90;;;;;;4905951;29;20596;-76
2022/12/07 12:52:55;;;;;;;14.17;13.17;;;6.70;99.90;;;;;;4874672;29;20226;-77
2022/12/07 12:55:59;;;;;;;14.10;13.20;;;6.70;99.90;;;;;;4886205;29;20208;-77
2022/12/07 12:59:19;;;;;;;14.03;13.10;;;6.60;99.90;;;;;;4889852;29;20200;-77
2022/12/07 13:01:48;;;;;;;14.30;13.30;;;6.60;99.90;;;;;;4848020;29;20712;-77
2022/12/07 13:04:36;;;;;;;14.33;13.33;;;6.50;99.90;;;;;;4881536;29;20205;-77
2022/12/07 13:07:05;;;;;;;15.30;14.20;;;6.50;99.90;;;;;;4880129;29;20214;-77
2022/12/07 13:09:35;;;;;;;14.70;13.63;;;6.50;99.90;;;;;;4884910;29;20205;-77
2022/12/07 13:12:12;;;;;;;15.00;14.00;;;6.50;99.90;;;;;;4885315;29;20220;-77
2022/12/07 13:14:57;;;;;;;14.67;13.77;;;6.40;99.90;;;;;;4885191;29;20204;-77
2022/12/07 13:17:57;;;;;;;14.53;13.53;;;6.40;99.90;;;;;;4884582;29;20202;-77
2022/12/07 13:20:54;;;;;;;14.40;13.40;;;6.30;99.90;;;;;;4884137;29;20207;-76
2022/12/07 13:23:25;;;;;;;14.47;13.47;;;6.30;99.90;;;;;;4884542;29;20230;-77
2022/12/07 13:26:14;;;;;;;14.83;13.60;;;6.20;99.90;;;;;;4888231;29;20203;-77
2022/12/07 13:28:43;;;;;;;14.67;13.67;;;6.20;99.90;;;;;;4882998;29;20200;-76
2022/12/07 13:31:34;;;;;;;14.30;13.20;;;6.20;99.90;;;;;;4885426;29;20254;-77
2022/12/07 13:34:02;;;;;;;14.50;13.50;;;6.20;99.90;;;;;;4893645;29;20202;-77
2022/12/07 13:36:35;;;;;;;15.30;14.00;;;6.30;99.90;;;;;;4881516;29;20678;-77
2022/12/07 13:39:18;;;;;;;16.20;14.77;;;6.30;99.90;;;;;;4882624;29;20214;-76
2022/12/07 13:41:46;;;;;;;19.90;18.20;;;6.30;99.90;;;;;;4879985;29;20216;-77
2022/12/07 13:44:15;;;;;;;17.37;15.97;;;6.30;99.90;;;;;;4885756;29;20206;-77
2022/12/07 13:46:49;;;;;;;16.13;14.90;;;6.30;99.90;;;;;;4887070;29;20675;-77
2022/12/07 13:49:21;;;;;;;15.47;14.37;;;6.30;99.90;;;;;;4880939;29;20211;-77
2022/12/07 13:51:48;;;;;;;15.30;14.10;;;6.30;99.90;;;;;;4881490;29;20284;-77
2022/12/07 13:54:17;;;;;;;14.63;13.57;;;6.30;99.90;;;;;;4885890;29;20202;-78
2022/12/07 13:56:45;;;;;;;15.27;14.17;;;6.30;99.90;;;;;;4884467;29;20207;-76
2022/12/07 13:59:17;;;;;;;14.37;13.37;;;6.30;99.90;;;;;;4885664;29;20231;-76
2022/12/07 14:01:46;;;;;;;14.67;13.57;;;6.20;99.90;;;;;;4885072;29;20293;-76
2022/12/07 14:04:35;;;;;;;14.23;13.23;;;6.20;99.90;;;;;;4885638;29;20249;-76
2022/12/07 14:07:20;;;;;;;15.07;13.97;;;6.20;99.90;;;;;;4878291;29;20214;-76
2022/12/07 14:09:57;;;;;;;14.40;13.40;;;6.10;99.90;;;;;;4880307;29;20202;-75
2022/12/07 14:12:26;;;;;;;15.40;14.13;;;6.10;99.90;;;;;;4881970;29;20316;-76
2022/12/07 14:14:53;;;;;;;15.97;13.20;;;6.10;99.90;;;;;;4882152;29;20247;-76
2022/12/07 14:17:23;;;;;;;14.40;13.30;;;6.10;99.90;;;;;;4884245;29;20219;-76
2022/12/07 14:19:52;;;;;;;13.73;12.73;;;6.00;99.90;;;;;;4881943;29;20203;-78
2022/12/07 14:22:26;;;;;;;13.40;12.50;;;6.00;99.90;;;;;;4885402;29;20594;-76
2022/12/07 14:25:02;;;;;;;13.93;12.93;;;6.00;99.90;;;;;;4899427;29;20208;-78
2022/12/07 14:27:33;;;;;;;14.10;13.00;;;6.00;99.90;;;;;;4882299;29;20621;-77
2022/12/07 14:30:01;;;;;;;15.00;13.70;;;6.00;99.90;;;;;;4890592;29;20284;-77
2022/12/07 14:32:30;;;;;;;14.93;13.90;;;5.90;99.90;;;;;;4884860;29;20222;-78
2022/12/07 14:34:59;;;;;;;14.97;13.97;;;5.90;99.90;;;;;;4891856;29;20225;-77
2022/12/07 14:37:27;;;;;;;14.87;13.83;;;5.80;99.90;;;;;;4883679;29;20217;-77
2022/12/07 14:39:54;;;;;;;14.93;13.93;;;5.80;99.90;;;;;;4885959;29;20199;-77
2022/12/07 14:42:25;;;;;;;15.33;14.17;;;5.80;99.90;;;;;;4890566;29;20222;-78
2022/12/07 14:44:52;;;;;;;15.60;14.30;;;5.80;99.90;;;;;;4886905;29;20199;-79
2022/12/07 14:47:19;;;;;;;15.17;14.07;;;5.80;99.90;;;;;;4886692;29;20215;-78
2022/12/07 14:49:46;;;;;;;15.93;14.73;;;5.80;99.90;;;;;;4881654;29;20667;-78
2022/12/07 14:52:17;;;;;;;16.60;15.17;;;5.70;99.90;;;;;;4886259;29;20739;-80
2022/12/07 14:54:44;;;;;;;16.73;15.33;;;5.70;99.90;;;;;;4907287;29;20284;-78
2022/12/07 14:57:12;;;;;;;15.40;14.30;;;5.70;99.90;;;;;;4891321;29;20267;-80
2022/12/07 14:59:40;;;;;;;15.27;14.07;;;5.60;99.90;;;;;;4883946;29;20202;-79
2022/12/07 15:02:08;;;;;;;15.70;14.20;;;5.60;99.90;;;;;;4880372;29;20241;-79
2022/12/07 15:04:34;;;;;;;15.70;14.33;;;5.60;99.90;;;;;;4890026;29;20296;-79
2022/12/07 15:07:04;;;;;;;15.03;13.87;;;5.60;99.90;;;;;;4882702;29;20218;-79
2022/12/07 15:09:30;;;;;;;15.13;14.03;;;5.50;99.90;;;;;;4874891;29;20201;-79
2022/12/07 15:11:57;;;;;;;16.10;14.70;;;5.50;99.90;;;;;;4886270;29;20230;-79
2022/12/07 15:14:24;;;;;;;15.97;14.77;;;5.40;99.90;;;;;;4889548;29;20190;-79
2022/12/07 15:16:52;;;;;;;16.20;15.00;;;5.40;99.90;;;;;;4942510;23;20711;-78
2022/12/07 15:19:22;;;;;;;16.30;15.00;;;5.30;99.90;;;;;;4939021;29;20210;-80
2022/12/07 15:21:49;;;;;;;15.97;14.67;;;5.30;99.90;;;;;;4942038;29;20203;-79
2022/12/07 15:24:16;;;;;;;15.23;14.03;;;5.30;99.90;;;;;;4934564;29;20227;-80
2022/12/07 15:26:43;;;;;;;14.90;13.70;;;5.20;99.90;;;;;;4936687;29;20232;-79
2022/12/07 15:29:11;;;;;;;15.23;14.07;;;5.20;99.90;;;;;;4923945;29;20216;-79
2022/12/07 15:31:38;;;;;;;15.00;13.90;;;5.10;99.90;;;;;;4925880;29;20207;-79
2022/12/07 15:34:07;;;;;;;15.10;13.87;;;5.10;99.90;;;;;;4927019;29;20267;-79
2022/12/07 15:36:34;;;;;;;15.33;14.03;;;5.00;99.90;;;;;;4927333;29;20216;-78
2022/12/07 15:39:02;;;;;;;16.23;14.93;;;5.00;99.90;;;;;;4928080;29;20199;-80
2022/12/07 15:41:29;;;;;;;16.80;15.47;;;4.90;99.90;;;;;;4901884;29;20204;-80
2022/12/07 15:46:41;;;;;;;17.20;15.77;;;4.90;99.90;;;;;;4916486;29;20219;-80
2022/12/07 15:49:13;;;;;;;17.17;15.77;;;4.90;99.90;;;;;;4923282;29;20287;-80
2022/12/07 15:51:40;;;;;;;16.20;14.80;;;4.90;99.90;;;;;;4929262;29;20209;-79
2022/12/07 15:54:07;;;;;;;17.50;16.10;;;4.90;99.90;;;;;;4922903;29;20318;-78
2022/12/07 15:56:34;;;;;;;17.07;15.67;;;4.90;99.90;;;;;;4925476;29;20687;-79
2022/12/07 15:59:01;;;;;;;16.40;15.10;;;4.90;99.90;;;;;;4924131;29;20201;-79
2022/12/07 16:01:27;;;;;;;16.23;14.93;;;4.80;99.90;;;;;;4922270;29;20210;-79
2022/12/07 16:03:55;;;;;;;15.93;14.77;;;4.80;99.90;;;;;;4925099;29;20638;-79